VHHHVMMC

Guest
Details From VHHH - Hong Kong Intl
To VMMC - Macau Intl
Flight Number -
Tags decoded
Created
Modified
Stats Distance 20 nm / 38 km
Max Altitude 0 ft / 0 m
Waypoints 2
Social Downloads 1
Likes 0
Share VATSIM

Download

Looking for another format? Having issues loading an existing format? Contact us
Advertisement - Login to hide

Notes

Requested: VHHH N21 E113 VMMC Unmatched points: N21 E113

Route

VHHH VMMC

ID Type Via Altitude Latitude Longitude Leg Dist Tot Dist Heading (true) Name
O VHHH APT - 0 ft / 0 m 22.30899˚ 113.91461˚ - 0 nm - Hong Kong Intl
O VMMC APT - 0 ft / 0 m 22.14867˚ 113.59141˚ 20 nm 20 nm 242° / 242° Macau Intl

Altitude Profile

Advertisement - Login to hide

VHHH

Details ICAO VHHH (HKG)
Name Hong Kong Intl
Region Hong Kong
Timezone Unknown (UTC+0.0)
Stats Elevation 28 ft / 9 m (AMSL)
Location 22.308995° 113.914610°
Runways 2
Magnetic Variation 2.822° W

METAR

VHHH 151800Z 34015KT 9999 FEW020 SCT035 18/13 Q1021 NOSIG

Decode

TAF

TAF VHHH 151700Z 1518/1624 36015KT 9000 FEW020 SCT030 TX18/1606Z TN15/1523Z TN12/1623Z TEMPO 1606/1618 36020G30KT

Decode

Departure Runways

ID Width Length Bearing (true) Bearing (mag) Surface Threshold Offset Overrun Length
07L 197 ft / 60 m 12,457 ft / 3,797 m 70.79° 73.61° Asphalt 564 ft / 172 m 866 ft / 264 m
07R 197 ft / 60 m 12,458 ft / 3,797 m 70.79° 73.61° Asphalt 525 ft / 160 m 886 ft / 270 m
25L 197 ft / 60 m 12,458 ft / 3,797 m 250.80° 253.62° Asphalt 0 ft / 0 m 840 ft / 256 m
25R 197 ft / 60 m 12,457 ft / 3,797 m 250.80° 253.62° Asphalt 581 ft / 177 m 860 ft / 262 m

VMMC

Details ICAO VMMC (MFM)
Name Macau Intl
Region Macau
Timezone Unknown (UTC+0.0)
Stats Elevation 20 ft / 6 m (AMSL)
Location 22.148675° 113.591412°
Runways 1
Magnetic Variation 2.744° W

METAR

VMMC 151800Z 34015KT 9999 FEW025 SCT035 16/12 Q1021 NOSIG

Decode

TAF

TAF VMMC 151700Z 1518/1624 35018KT 9999 FEW025 SCT035 TEMPO 1521/1606 35022G32KT TEMPO 1612/1624 35025G35KT

Decode

Destination Runways

ID Width Length Bearing (true) Bearing (mag) Surface Threshold Offset Overrun Length
16 148 ft / 45 m 10,584 ft / 3,226 m 160.29° 163.03° Concrete 1,195 ft / 364 m 155 ft / 47 m
34 148 ft / 45 m 10,584 ft / 3,226 m 340.29° 343.03° Concrete 1,215 ft / 370 m 185 ft / 56 m

Approach Navaids

Runway Type Ident Frequency Range Bearing (true) Bearing (mag) Slope Elevation
16 Localiser MCS 111.70 MHz 18 nm / 33 km 214.85° 217.59° - 20 ft / 6 m (AMSL)
16 DME MCS 111.70 MHz 18 nm / 33 km - - - 286 ft / 87 m (AMSL)
34 Localiser MCN 109.70 MHz 18 nm / 33 km 341.45° 344.20° - 20 ft / 6 m (AMSL)
34 Glidescope MCN 109.70 MHz 10 nm / 19 km 340.29° 343.04° 3.00° 20 ft / 6 m (AMSL)
34 DME MCN 109.70 MHz 18 nm / 33 km - - - 13 ft / 4 m (AMSL)

Popular Alternatives